KAMG/AMG METAR and TAF weather

Enter ICAO airport designator
Station Type Date Time Source
KAMG METAR 2021/07/30 21:53 UTC NOAA

KAMG 302153Z AUTO 24007KT 10SM CLR 34/24 A2996 RMK AO2 SLP142 T03390239


Station Type Date Time Source
KAMG Decoded METAR 2021/07/30 21:53 UTC NOAA

ALMA BACON COUNTY AIRPORT, GA, United States (KAMG) 31-32N 82-30W 59M
Jul 30, 2021 - 05:53 PM EDT / 2021.07.30 2153 UTC
Wind: from the WSW (240 degrees) at 8 MPH (7 KT):0
Visibility: 10 mile(s):0
Sky conditions: clear
Temperature: 93.0 F (33.9 C)
Heat index: 104.5 F (40.3 C):1
Dew Point: 75.0 F (23.9 C)
Relative Humidity: 56%
Pressure (altimeter): 29.96 in. Hg (1014 hPa)
ob: KAMG 302153Z AUTO 24007KT 10SM CLR 34/24 A2996 RMK AO2 SLP142 T03390239
cycle: 22

Station Type Date Time Source
KAMG TAF UTC NOAA

Error!

Example: see airport list